Latest Weather Observations for Essendon Airport

IDV60901

Issued at 5:11 pm EST Sunday 11 April 2021 (issued every 10 minutes, with the page automatically refreshed every 10 minutes)

About weather observations | Map of Melbourne area stations | Latest observations for Melbourne area | Other Formats
Station Details ID: 086038 Name: ESSENDON AIRPORT Lat: -37.73 Lon: 144.91 Height: 78.4 m
Data from the previous 72 hours. | See also: Recent months at Essendon Airport
Date/Time
EST
Temp
°C
App
Temp
°C
Dew
Point
°C
Rel
Hum
%
Delta-T
°C
Wind Press
QNH
hPa
Press
MSL
hPa
Rain since
9am
mm
Dir  Spd
km/h
Gust
km/h
Spd
kts
Gust
kts
11/05:00pm 11.3 5.6 8.2 81 1.5 SSW 28 39 15 21 1018.3 1018.2 0.6
11/04:31pm 13.4 5.0 3.8 52 4.4 SSW 37 57 20 31 1017.8 1017.7 0.6
11/04:30pm 13.5 5.2 4.1 53 4.3 SSW 37 54 20 29 1017.8 1017.7 0.6
11/04:08pm 13.4 5.9 6.5 63 3.3 SSW 35 54 19 29 1017.6 1017.5 0.6
11/04:00pm 13.5 4.1 5.2 57 3.9 SW 44 57 24 31 1017.6 1017.5 0.6
11/03:44pm 14.1 6.2 4.1 51 4.6 SSW 35 65 19 35 1017.3 1017.2 0.6
11/03:30pm 13.7 6.2 4.6 54 4.2 SW 33 48 18 26 1017.2 1017.1 0.6
11/03:00pm 13.0 3.9 6.1 63 3.3 SSW 43 61 23 33 1017.0 1016.9 0.6
11/02:43pm 14.2 7.1 5.6 56 4.1 SW 32 56 17 30 1016.6 1016.5 0.6
11/02:30pm 13.3 6.4 7.1 66 3.0 SSW 33 48 18 26 1016.6 1016.5 0.6
11/02:14pm 13.1 5.0 7.1 67 2.9 SSW 39 57 21 31 1016.5 1016.4 0.4
11/02:00pm 12.6 4.3 6.2 65 3.0 SSW 39 56 21 30 1016.4 1016.3 0.4
11/01:35pm 14.3 8.4 7.4 63 3.4 SW 28 48 15 26 1016.0 1015.9 0.4
11/01:30pm 14.1 8.8 8.3 68 2.9 SW 26 35 14 19 1016.1 1016.0 0.4
11/01:00pm 13.2 5.9 7.2 67 2.9 SW 35 54 19 29 1016.2 1016.1 0.4
11/12:30pm 11.7 4.6 8.2 79 1.7 SW 35 56 19 30 1016.2 1016.1 0.4
11/12:11pm 12.4 4.6 6.7 68 2.7 SW 37 59 20 32 1016.3 1016.2 0.4
11/12:00pm 13.2 5.7 6.5 64 3.2 SW 35 52 19 28 1016.0 1015.9 0.4
11/11:30am 11.7 3.5 6.6 71 2.4 SW 39 59 21 32 1016.1 1016.0 0.4
11/11:00am 12.0 4.8 6.1 67 2.8 SW 33 59 18 32 1015.8 1015.7 0.4
11/10:59am 12.0 5.0 6.1 67 2.8 SW 32 59 17 32 1015.7 1015.6 0.4
11/10:36am 11.6 4.8 7.1 74 2.2 SW 32 43 17 23 1015.7 1015.6 0.4
11/10:30am 11.5 4.7 7.6 77 1.9 SW 33 52 18 28 1015.6 1015.5 0.4
11/10:17am 10.6 3.8 6.7 77 1.8 WSW 32 50 17 27 1015.9 1015.8 0.2
11/10:00am 9.8 3.9 7.6 86 1.1 WSW 28 37 15 20 1015.5 1015.4 0.2
11/09:36am 10.5 3.0 6.1 74 2.1 WSW 35 54 19 29 1015.5 1015.4 0.0
11/09:30am 10.7 3.9 6.8 77 1.8 WSW 32 46 17 25 1015.3 1015.2 0.0
11/09:00am 8.9 3.5 6.5 85 1.1 W 24 30 13 16 1014.8 1014.8 4.6
11/08:30am 8.0 2.5 6.0 87 0.9 W 24 33 13 18 1014.8 1014.8 4.4
11/08:00am 8.0 3.2 5.6 85 1.1 W 20 28 11 15 1014.1 1014.1 3.8
11/07:30am 7.6 2.0 5.2 85 1.1 W 24 33 13 18 1013.7 1013.7 3.8
11/07:00am 7.4 2.1 4.9 84 1.1 W 22 32 12 17 1013.6 1013.6 3.2
11/06:30am 7.2 1.2 5.2 87 0.9 W 26 37 14 20 1013.0 1013.0 3.2
11/06:00am 7.1 1.4 5.1 87 0.9 W 24 32 13 17 1012.6 1012.6 3.0
11/05:30am 7.5 1.4 4.6 82 1.3 W 26 35 14 19 1012.2 1012.2 2.4
11/05:00am 7.6 1.1 4.6 81 1.3 W 28 39 15 21 1011.7 1011.6 2.4
11/04:30am 7.0 0.4 4.0 81 1.3 W 28 37 15 20 1011.3 1011.2 2.4
11/04:00am 7.4 0.8 4.0 79 1.5 W 28 41 15 22 1011.1 1011.0 2.4
11/03:30am 7.2 1.0 4.2 81 1.3 W 26 35 14 19 1010.8 1010.7 2.4
11/03:00am 7.5 1.0 4.6 82 1.3 W 28 39 15 21 1011.1 1011.0 2.4
11/02:30am 7.5 1.4 4.8 83 1.2 W 26 33 14 18 1011.1 1011.0 2.4
11/02:00am 7.8 1.7 4.7 81 1.4 W 26 39 14 21 1010.8 1010.7 2.4
11/01:30am 7.8 1.7 4.9 82 1.3 W 26 33 14 18 1010.9 1010.8 2.4
11/01:00am 7.7 2.0 5.0 83 1.2 W 24 32 13 17 1010.6 1010.5 2.4
11/12:30am 7.7 2.4 4.8 82 1.3 W 22 32 12 17 1010.6 1010.5 2.4
11/12:00am 8.0 2.0 5.1 82 1.3 W 26 35 14 19 1010.6 1010.5 2.4
 
Date/Time
EST
Temp
°C
App
Temp
°C
Dew
Point
°C
Rel
Hum
%
Delta-T
°C
Wind Press
QNH
hPa
Press
MSL
hPa
Rain since
9am
mm
Dir  Spd
km/h
Gust
km/h
Spd
kts
Gust
kts
10/11:30pm 8.0 2.8 5.3 83 1.2 WNW 22 28 12 15 1010.8 1010.7 2.4
10/11:00pm 8.2 2.6 5.5 83 1.2 WNW 24 32 13 17 1010.7 1010.6 2.4
10/10:30pm 8.5 2.6 6.0 84 1.1 W 26 33 14 18 1010.6 1010.5 2.4
10/10:00pm 8.7 2.8 6.0 83 1.2 W 26 35 14 19 1010.7 1010.6 2.4
10/09:30pm 8.6 3.3 6.7 88 0.9 WNW 24 32 13 17 1010.5 1010.4 2.4
10/09:00pm 8.8 1.7 6.4 85 1.1 W 33 44 18 24 1010.9 1010.8 2.4
10/08:30pm 10.1 5.1 6.4 78 1.7 W 22 33 12 18 1010.5 1010.4 1.4
10/08:00pm 9.5 6.2 6.4 81 1.4 WNW 13 20 7 11 1010.2 1010.1 1.4
10/07:30pm 9.0 5.3 6.1 82 1.3 W 15 24 8 13 1009.9 1009.8 1.4
10/07:00pm 9.3 3.6 6.6 83 1.3 WSW 26 32 14 17 1009.8 1009.7 1.4
10/06:47pm 9.5 2.7 6.9 84 1.2 WSW 32 43 17 23 1010.0 1009.9 1.4
10/06:39pm 9.7 2.7 7.0 83 1.3 WSW 33 44 18 24 1010.0 1009.9 1.4
10/06:30pm 9.5 1.1 7.3 86 1.0 SW 41 65 22 35 1010.2 1010.1 1.4
10/06:26pm 10.1 2.6 6.1 76 1.9 SW 35 65 19 35 1010.0 1009.9 0.8
10/06:24pm 10.9 3.8 5.4 69 2.5 WSW 32 48 17 26 1010.0 1009.9 0.8
10/06:00pm 11.2 5.7 5.9 70 2.5 WSW 24 33 13 18 1009.4 1009.3 0.8
10/05:30pm 11.6 5.1 6.5 71 2.4 WSW 30 43 16 23 1009.2 1009.1 0.6
10/05:00pm 13.3 4.5 5.5 59 3.7 WSW 41 50 22 27 1009.0 1008.9 0.6
10/04:38pm 13.7 5.3 5.8 59 3.8 WSW 39 59 21 32 1008.6 1008.5 0.6
10/04:30pm 13.6 4.6 6.5 62 3.4 SW 43 57 23 31 1008.5 1008.4 0.6
10/04:04pm 14.9 6.9 5.7 54 4.4 SW 37 56 20 30 1008.0 1007.9 0.6
10/04:00pm 15.0 6.6 5.8 54 4.4 SW 39 56 21 30 1008.1 1008.0 0.6
10/03:54pm 15.4 8.3 5.3 51 4.8 SW 32 52 17 28 1008.1 1008.0 0.6
10/03:30pm 15.7 7.4 5.9 52 4.7 SW 39 52 21 28 1007.9 1007.8 0.6
10/03:01pm 14.8 6.4 7.4 61 3.7 SW 41 59 22 32 1007.9 1007.8 0.6
10/03:00pm 14.9 6.9 7.5 61 3.7 SW 39 52 21 28 1007.9 1007.8 0.6
10/02:48pm 15.9 7.5 5.5 50 5.0 WSW 39 61 21 33 1007.6 1007.5 0.6
10/02:30pm 17.1 9.8 5.4 46 5.7 WSW 33 48 18 26 1007.4 1007.3 0.6
10/02:00pm 17.6 8.5 4.2 41 6.4 WSW 41 63 22 34 1007.2 1007.1 0.6
10/01:31pm 16.9 9.2 5.5 47 5.5 WSW 35 54 19 29 1007.6 1007.5 0.6
10/01:30pm 16.6 9.4 5.9 49 5.2 WSW 33 48 18 26 1007.7 1007.6 0.6
10/01:00pm 14.7 8.2 8.9 68 3.0 WSW 33 46 18 25 1007.9 1007.8 0.6
10/12:30pm 15.2 8.6 10.0 71 2.7 WSW 35 44 19 24 1007.9 1007.8 0.6
10/12:00pm 14.5 8.7 12.7 89 1.0 SW 35 50 19 27 1008.0 1007.9 0.6
10/11:47am 14.0 8.5 12.0 88 1.1 SW 32 46 17 25 1007.9 1007.8 0.6
10/11:30am 15.4 11.6 12.5 83 1.6 W 24 33 13 18 1007.6 1007.5 0.4
10/11:20am 14.6 10.7 12.1 85 1.4 WSW 24 35 13 19 1007.8 1007.7 0.4
10/11:05am 13.8 8.3 12.0 89 1.0 WSW 32 46 17 25 1007.8 1007.7 0.2
10/11:00am 15.4 10.0 10.8 74 2.5 WSW 30 39 16 21 1007.7 1007.6 0.0
10/10:56am 15.7 9.9 10.7 72 2.7 WSW 32 43 17 23 1007.6 1007.5 0.0
10/10:44am 14.8 8.9 11.0 78 2.0 W 33 48 18 26 1007.6 1007.5 0.0
10/10:30am 16.0 11.0 9.7 66 3.3 W 26 35 14 19 1007.5 1007.4 0.0
10/10:00am 16.3 10.2 9.7 65 3.5 W 32 43 17 23 1007.5 1007.4 0.0
10/09:30am 15.4 9.4 10.0 70 2.8 WNW 32 43 17 23 1007.5 1007.4 0.0
10/09:00am 13.9 9.5 10.3 79 1.9 WNW 24 32 13 17 1007.8 1007.7 0.0
10/08:30am 14.0 9.7 9.2 73 2.5 WNW 22 33 12 18 1007.9 1007.8 0.0
10/08:00am 13.3 10.5 8.6 73 2.4 WNW 13 19 7 10 1007.8 1007.7 0.0
10/07:30am 13.1 9.9 8.4 73 2.3 WNW 15 20 8 11 1007.6 1007.5 0.0
10/07:00am 12.8 9.1 8.1 73 2.3 NW 17 22 9 12 1007.3 1007.2 0.0
10/06:30am 12.7 9.3 7.6 71 2.5 NW 15 20 8 11 1007.4 1007.3 0.0
10/06:00am 12.7 9.7 7.6 71 2.5 WNW 13 17 7 9 1007.3 1007.2 0.0
10/05:30am 12.6 9.2 7.5 71 2.5 WNW 15 22 8 12 1007.4 1007.3 0.0
10/05:00am 12.9 10.1 7.1 68 2.8 WNW 11 17 6 9 1007.5 1007.4 0.0
10/04:30am 12.8 9.8 7.5 70 2.6 WNW 13 19 7 10 1007.6 1007.5 0.0
10/04:00am 12.9 10.2 7.4 69 2.7 WNW 11 17 6 9 1007.6 1007.5 0.0
10/03:30am 12.7 10.0 7.2 69 2.7 W 11 15 6 8 1007.7 1007.6 0.0
10/03:00am 12.6 9.5 7.3 70 2.6 W 13 20 7 11 1007.9 1007.8 0.0
10/02:30am 12.5 9.1 7.6 72 2.4 W 15 20 8 11 1008.2 1008.1 0.0
10/02:00am 11.6 8.9 7.3 75 2.1 W 11 13 6 7 1008.3 1008.2 0.0
10/01:30am 11.9 8.8 7.4 74 2.2 W 13 19 7 10 1008.6 1008.5 0.0
10/01:00am 12.7 10.1 7.6 71 2.5 WNW 11 13 6 7 1008.7 1008.6 0.0
10/12:30am 13.3 10.6 7.5 68 2.8 W 11 15 6 8 1008.8 1008.7 0.0
10/12:00am 13.3 10.3 7.7 69 2.8 W 13 15 7 8 1009.1 1009.0 0.0
 
Date/Time
EST
Temp
°C
App
Temp
°C
Dew
Point
°C
Rel
Hum
%
Delta-T
°C
Wind Press
QNH
hPa
Press
MSL
hPa
Rain since
9am
mm
Dir  Spd
km/h
Gust
km/h
Spd
kts
Gust
kts
09/11:30pm 13.5 10.5 7.9 69 2.8 W 13 20 7 11 1009.5 1009.4 0.0
09/11:00pm 13.5 11.0 8.4 71 2.6 W 11 13 6 7 1009.7 1009.6 0.0
09/10:30pm 13.4 10.9 8.3 71 2.5 W 11 13 6 7 1009.9 1009.8 0.0
09/10:00pm 13.7 11.6 8.3 70 2.7 W 9 11 5 6 1010.1 1010.0 0.0
09/09:30pm 13.2 10.7 8.1 71 2.5 WSW 11 13 6 7 1010.2 1010.1 0.0
09/09:00pm 13.7 11.2 8.3 70 2.7 SW 11 13 6 7 1010.2 1010.1 0.0
09/08:30pm 13.5 11.4 8.1 70 2.7 SSW 9 11 5 6 1010.2 1010.1 0.0
09/08:00pm 13.6 11.4 8.0 69 2.8 SSW 9 13 5 7 1010.0 1009.9 0.0
09/07:30pm 13.9 11.7 7.9 67 3.0 SSW 9 13 5 7 1009.8 1009.7 0.0
09/07:00pm 14.0 11.5 8.0 67 3.0 S 11 15 6 8 1009.6 1009.5 0.0
09/06:30pm 14.0 10.3 7.8 66 3.1 S 17 20 9 11 1009.4 1009.3 0.0
09/06:00pm 14.5 10.8 7.8 64 3.3 S 17 24 9 13 1009.3 1009.2 0.0
09/05:30pm 14.6 10.2 7.4 62 3.6 S 20 28 11 15 1009.2 1009.1 0.0
09/05:00pm 15.1 10.9 8.1 63 3.5 S 20 30 11 16 1009.2 1009.1 0.0
09/04:30pm 15.6 11.6 8.4 62 3.7 S 19 30 10 16 1009.2 1009.1 0.0
09/04:00pm 15.7 11.6 7.7 59 4.0 S 19 28 10 15 1009.1 1009.0 0.0
09/03:30pm 15.4 10.8 8.2 62 3.6 S 22 30 12 16 1009.4 1009.3 0.0
09/03:00pm 16.1 10.9 8.8 62 3.8 S 26 33 14 18 1009.4 1009.3 0.0
09/02:30pm 16.3 11.4 9.9 66 3.4 S 26 37 14 20 1009.2 1009.1 0.0
09/02:00pm 14.2 10.4 11.0 81 1.7 SSW 22 33 12 18 1009.4 1009.3 0.0
09/01:30pm 16.7 11.8 8.4 58 4.2 SSW 24 35 13 19 1009.1 1009.0 0.0
09/01:00pm 16.0 11.7 9.4 65 3.4 SW 22 32 12 17 1009.5 1009.4 0.0
09/12:30pm 16.5 11.4 9.2 62 3.8 SSW 26 35 14 19 1009.9 1009.8 0.0
09/12:00pm 15.1 9.4 9.7 70 2.8 SSW 30 41 16 22 1010.0 1009.9 0.0
09/11:30am 16.8 11.6 10.4 66 3.4 SSW 28 37 15 20 1009.9 1009.8 0.0
09/11:00am 17.3 11.6 8.4 56 4.6 SSW 28 35 15 19 1009.8 1009.7 0.0
09/10:30am 17.0 12.1 8.4 57 4.4 SSW 24 35 13 19 1009.7 1009.6 0.0
09/10:00am 15.3 11.2 7.8 61 3.8 WSW 19 24 10 13 1009.6 1009.5 0.0
09/09:30am 15.5 10.7 9.0 65 3.3 WSW 24 33 13 18 1010.0 1009.9 0.0
09/09:00am 14.6 10.3 9.2 70 2.8 WSW 22 30 12 16 1010.0 1009.9 4.6
09/08:30am 13.9 10.0 9.3 74 2.4 WSW 20 24 11 13 1009.8 1009.7 4.6
09/08:00am 13.3 9.8 10.3 82 1.6 WSW 19 22 10 12 1009.4 1009.3 4.6
09/07:30am 13.0 9.4 10.4 84 1.4 WSW 20 30 11 16 1009.1 1009.0 4.6
09/07:00am 12.7 8.2 9.9 83 1.4 WSW 24 32 13 17 1008.7 1008.6 4.6
09/06:30am 13.2 10.2 10.6 84 1.4 WSW 17 20 9 11 1008.3 1008.2 4.6
09/06:00am 13.4 8.8 10.9 85 1.3 WSW 26 33 14 18 1007.9 1007.8 4.6
09/05:30am 13.3 10.0 12.7 96 0.3 WSW 22 32 12 17 1007.6 1007.5 4.6
09/05:16am 13.5 11.4 13.5 100 0.0 SW 17 20 9 11 1007.5 1007.4 4.6
09/05:00am 13.5 12.1 13.5 100 0.0 SW 13 17 7 9 1007.4 1007.3 4.6
09/04:58am 13.5 12.1 13.5 100 0.0 SW 13 19 7 10 1007.4 1007.3 4.6
09/04:30am 13.5 9.7 13.5 100 0.0 SW 26 33 14 18 1007.1 1007.0 4.4
09/04:12am 14.2 11.9 14.2 100 0.0 SW 19 26 10 14 1007.0 1006.9 4.2
09/04:00am 14.2 10.6 14.2 100 0.0 SW 26 35 14 19 1006.9 1006.8 4.0
09/03:30am 14.5 10.9 14.2 98 0.2 SSW 26 33 14 18 1006.4 1006.3 3.0
09/03:08am 16.0 14.0 15.0 94 0.6 WSW 19 28 10 15 1005.8 1005.7 1.4
09/03:02am 16.2 15.7 14.9 92 0.8 SW 11 20 6 11 1005.7 1005.6 1.4
09/03:00am 16.2 16.2 15.1 93 0.6 SW 9 17 5 9 1005.7 1005.6 1.4
09/02:30am 16.2 16.7 14.9 92 0.8 W 6 9 3 5 1005.7 1005.6 1.2
09/02:00am 16.6 16.0 14.6 88 1.2 W 11 19 6 10 1005.7 1005.6 1.0
09/01:30am 17.1 15.8 14.7 86 1.4 WSW 15 22 8 12 1006.6 1006.5 0.4
09/01:00am 18.0 14.5 13.5 75 2.6 WSW 24 33 13 18 1006.4 1006.3 0.0
09/12:30am 19.4 15.4 11.7 61 4.3 WSW 24 39 13 21 1006.1 1006.0 0.0
09/12:00am 19.2 16.8 11.5 61 4.3 SW 15 20 8 11 1005.8 1005.7 0.0
 
Date/Time
EST
Temp
°C
App
Temp
°C
Dew
Point
°C
Rel
Hum
%
Delta-T
°C
Wind Press
QNH
hPa
Press
MSL
hPa
Rain since
9am
mm
Dir  Spd
km/h
Gust
km/h
Spd
kts
Gust
kts
08/11:30pm 19.5 16.9 10.8 57 4.7 WSW 15 20 8 11 1005.5 1005.4 0.0
08/11:00pm 19.2 18.3 12.5 65 3.8 SSW 9 11 5 6 1005.8 1005.7 0.0
08/10:30pm 20.0 19.0 13.5 66 3.7 S 11 13 6 7 1006.1 1006.0 0.0
08/10:00pm 20.3 19.2 13.0 63 4.2 S 11 15 6 8 1006.0 1005.9 0.0
08/09:30pm 21.3 19.0 11.9 55 5.3 S 15 19 8 10 1006.2 1006.1 0.0
08/09:00pm 23.1 18.4 7.6 37 8.2 SW 22 28 12 15 1006.2 1006.1 0.0
08/08:30pm 23.6 19.7 5.5 31 9.2 NNW 15 19 8 10 1005.3 1005.2 0.0
08/08:00pm 23.4 20.0 5.8 32 9.0 N 13 15 7 8 1005.3 1005.2 0.0
08/07:30pm 22.5 19.8 5.4 33 8.6 N 9 11 5 6 1005.4 1005.3 0.0
08/07:00pm 23.7 20.4 4.6 29 9.5 N 11 13 6 7 1005.4 1005.3 0.0
08/06:30pm 24.4 20.9 3.7 26 10.2 NNW 11 15 6 8 1005.1 1005.0 0.0
08/06:00pm 25.2 21.2 2.6 23 11.0 NW 13 19 7 10 1005.2 1005.1 0.0
08/05:30pm 26.0 21.1 2.0 21 11.6 NNW 17 26 9 14 1005.2 1005.1 0.0

Latest Capital City Observations: Canberra | Sydney | Melbourne | Brisbane | Adelaide | Perth | Hobart | Darwin

Other formats

Comma delimited format used in spreadsheet applications
http://www.bom.gov.au/fwo/IDV60901/IDV60901.95866.axf

JavaScript Object Notation format (JSON) in row-major order
http://www.bom.gov.au/fwo/IDV60901/IDV60901.95866.json

Data quality

Most of these data are generated automatically and are frequently updated. Quality checks on data are not normally performed. It is possible for incorrect values to appear. Refer to information at About Latest Weather Observations and please check the disclaimer before using these data.